Time;durP1;ratioP1;P1;durP2;ratioP2;P2;SDS_P1;SDS_P2;PMS_P1;PMS_P2;Temp;Humidity;BMP_temperature;BMP_pressure;BME280_temperature;BME280_humidity;BME280_pressure;Samples;Min_cycle;Max_cycle;Signal;HPM_P1;HPM_P2
2021/07/31 00:02:19;;;;;;;6.85;1.75;;;17.00;99.90;;;;;;5004664;28;20477;-67
2021/07/31 00:04:45;;;;;;;4.63;1.35;;;16.90;99.90;;;;;;4982172;28;20548;-67
2021/07/31 00:07:11;;;;;;;4.60;1.40;;;16.90;99.90;;;;;;5004773;28;20068;-67
2021/07/31 00:09:37;;;;;;;4.18;1.27;;;16.90;99.90;;;;;;5000874;28;20124;-67
2021/07/31 00:12:04;;;;;;;9.40;1.50;;;16.90;99.90;;;;;;5004684;28;20048;-67
2021/07/31 00:14:32;;;;;;;7.28;1.42;;;16.90;99.90;;;;;;5002123;28;20390;-67
2021/07/31 00:16:58;;;;;;;6.72;1.65;;;16.90;99.90;;;;;;5003019;28;20674;-67
2021/07/31 00:19:24;;;;;;;7.45;1.90;;;16.80;99.90;;;;;;5003937;28;20115;-67
2021/07/31 00:21:49;;;;;;;4.50;1.40;;;16.80;99.90;;;;;;5000371;28;20026;-67
2021/07/31 00:24:15;;;;;;;5.93;1.48;;;16.60;99.90;;;;;;5004197;28;20029;-67
2021/07/31 00:26:41;;;;;;;4.43;1.50;;;16.70;99.90;;;;;;5002095;28;20489;-67
2021/07/31 00:29:07;;;;;;;7.25;1.50;;;16.60;99.90;;;;;;5003519;28;20034;-67
2021/07/31 00:31:32;;;;;;;7.15;2.50;;;16.60;99.90;;;;;;5001757;28;20112;-68
2021/07/31 00:33:58;;;;;;;6.47;1.67;;;16.50;99.90;;;;;;5000529;28;20053;-67
2021/07/31 00:36:24;;;;;;;4.05;1.10;;;16.40;99.90;;;;;;5005225;28;20041;-67
2021/07/31 00:38:50;;;;;;;3.22;1.33;;;16.50;99.90;;;;;;4998478;28;20029;-67
2021/07/31 00:41:16;;;;;;;5.10;1.48;;;16.60;99.90;;;;;;5002793;28;20171;-67
2021/07/31 00:43:41;;;;;;;5.57;1.63;;;16.60;99.90;;;;;;5000718;28;20030;-67
2021/07/31 00:46:07;;;;;;;6.05;1.80;;;16.70;99.90;;;;;;5003630;28;20112;-67
2021/07/31 00:48:33;;;;;;;6.82;1.55;;;16.60;99.90;;;;;;5001070;28;20030;-68
2021/07/31 00:50:59;;;;;;;4.63;1.55;;;16.50;99.90;;;;;;4999821;28;20576;-67
2021/07/31 00:53:25;;;;;;;5.25;1.55;;;16.50;99.90;;;;;;4986836;28;20064;-67
2021/07/31 00:55:53;;;;;;;5.85;1.38;;;16.70;99.90;;;;;;4999998;28;20439;-67
2021/07/31 00:58:20;;;;;;;5.53;1.52;;;16.70;99.90;;;;;;5002943;28;20400;-67
2021/07/31 01:00:45;;;;;;;5.43;1.40;;;16.60;99.90;;;;;;4999643;28;20497;-67
2021/07/31 01:03:11;;;;;;;4.28;1.58;;;16.50;99.90;;;;;;5002632;28;20041;-67
2021/07/31 01:05:37;;;;;;;2.58;1.15;;;16.60;99.90;;;;;;4998245;28;20037;-67
2021/07/31 01:08:03;;;;;;;4.13;1.50;;;16.70;99.90;;;;;;5001794;28;20030;-67
2021/07/31 01:10:29;;;;;;;11.45;1.60;;;16.70;99.90;;;;;;5001281;28;20048;-67
2021/07/31 01:12:57;;;;;;;4.63;1.58;;;16.80;99.90;;;;;;5001948;28;20030;-67
2021/07/31 01:15:23;;;;;;;3.95;1.38;;;16.80;99.90;;;;;;5000738;28;20124;-67
2021/07/31 01:17:48;;;;;;;4.25;1.50;;;16.90;99.90;;;;;;4998951;28;20184;-67
2021/07/31 01:20:14;;;;;;;7.28;1.58;;;16.80;99.90;;;;;;5001881;28;20067;-68
2021/07/31 01:22:40;;;;;;;5.35;1.63;;;16.90;99.90;;;;;;5001059;28;20026;-67
2021/07/31 01:25:06;;;;;;;4.50;1.40;;;16.90;99.90;;;;;;5003194;28;20083;-67
2021/07/31 01:27:32;;;;;;;7.88;1.70;;;16.80;99.90;;;;;;4993118;28;20540;-67
2021/07/31 01:29:57;;;;;;;4.75;1.70;;;16.90;99.90;;;;;;5003064;28;20030;-68
2021/07/31 01:32:23;;;;;;;4.90;1.55;;;16.90;99.90;;;;;;5008457;28;20470;-67
2021/07/31 01:34:48;;;;;;;7.20;1.80;;;16.90;99.90;;;;;;5003417;28;20014;-67
2021/07/31 01:37:14;;;;;;;5.32;1.55;;;16.90;99.90;;;;;;5008897;28;20079;-68
2021/07/31 01:39:40;;;;;;;4.20;1.60;;;16.80;99.90;;;;;;5008762;28;20033;-67
2021/07/31 01:42:07;;;;;;;4.90;1.60;;;16.90;99.90;;;;;;4990504;28;20032;-68
2021/07/31 01:44:33;;;;;;;4.65;1.70;;;16.90;99.90;;;;;;5009046;28;20058;-67
2021/07/31 01:46:58;;;;;;;4.55;1.75;;;16.80;99.90;;;;;;5009750;28;20026;-67
2021/07/31 01:49:24;;;;;;;8.15;2.08;;;16.90;99.90;;;;;;5007463;28;20022;-67
2021/07/31 01:51:49;;;;;;;8.55;2.30;;;16.90;99.90;;;;;;5007885;28;20104;-67
2021/07/31 01:54:15;;;;;;;3.63;1.45;;;16.90;99.90;;;;;;5008470;28;20066;-67
2021/07/31 01:56:41;;;;;;;5.90;1.70;;;16.90;99.90;;;;;;5008090;28;20032;-67
2021/07/31 01:59:06;;;;;;;9.02;1.75;;;16.90;99.90;;;;;;5007567;28;20052;-68
2021/07/31 02:01:32;;;;;;;7.13;1.83;;;16.80;99.90;;;;;;5011240;28;20046;-67
2021/07/31 02:03:57;;;;;;;5.50;1.67;;;16.80;99.90;;;;;;5003387;28;20045;-67
2021/07/31 02:06:23;;;;;;;5.32;1.60;;;16.80;99.90;;;;;;5006393;28;20033;-67
2021/07/31 02:08:48;;;;;;;10.93;1.88;;;16.80;99.90;;;;;;4984793;28;20018;-68
2021/07/31 02:11:14;;;;;;;5.45;1.77;;;16.70;99.90;;;;;;4992503;28;20161;-68
2021/07/31 02:13:40;;;;;;;5.88;1.50;;;16.60;99.90;;;;;;5005629;28;20385;-68
2021/07/31 02:16:05;;;;;;;7.03;1.95;;;16.60;99.90;;;;;;5007167;28;20096;-67
2021/07/31 02:18:31;;;;;;;4.13;1.58;;;16.50;99.90;;;;;;4988272;28;20041;-67
2021/07/31 02:20:57;;;;;;;5.47;1.90;;;16.40;99.90;;;;;;5007723;28;20034;-67
2021/07/31 02:23:22;;;;;;;7.72;1.80;;;16.40;99.90;;;;;;5008536;28;20605;-67
2021/07/31 02:25:48;;;;;;;5.75;1.70;;;16.40;99.90;;;;;;5008074;28;20034;-67
2021/07/31 02:28:14;;;;;;;10.55;1.80;;;16.50;99.90;;;;;;4989301;28;20026;-67
2021/07/31 02:30:39;;;;;;;5.95;1.50;;;16.40;99.90;;;;;;5004448;28;20030;-67
2021/07/31 02:33:05;;;;;;;11.15;2.60;;;16.50;99.90;;;;;;4991892;28;20048;-67
2021/07/31 02:35:35;;;;;;;4.65;1.45;;;16.40;99.90;;;;;;5007369;28;20033;-67
2021/07/31 02:38:05;;;;;;;5.90;1.83;;;16.40;99.90;;;;;;5008155;28;20018;-68
2021/07/31 02:40:31;;;;;;;4.63;1.73;;;16.50;99.90;;;;;;5007212;28;20041;-67
2021/07/31 02:42:56;;;;;;;5.75;2.03;;;16.60;99.90;;;;;;5002399;28;20038;-67
2021/07/31 02:45:22;;;;;;;5.93;2.00;;;16.60;99.90;;;;;;5007904;28;20481;-67
2021/07/31 02:47:49;;;;;;;6.00;1.83;;;16.60;99.90;;;;;;5005555;28;20060;-67
2021/07/31 02:50:14;;;;;;;5.68;1.80;;;16.60;99.90;;;;;;5007578;28;20389;-67
2021/07/31 02:52:40;;;;;;;7.13;2.35;;;16.60;99.90;;;;;;5005328;28;20134;-67
2021/07/31 02:55:06;;;;;;;6.15;1.83;;;16.60;99.90;;;;;;5006974;28;20274;-68
2021/07/31 02:57:32;;;;;;;4.95;1.73;;;16.60;99.90;;;;;;5001561;28;20798;-67
2021/07/31 02:59:57;;;;;;;6.95;1.85;;;16.70;99.90;;;;;;5004794;28;20099;-67
2021/07/31 03:02:24;;;;;;;7.15;1.70;;;16.70;99.90;;;;;;5007204;28;20036;-67
2021/07/31 03:04:50;;;;;;;6.18;1.63;;;16.60;99.90;;;;;;5005612;28;20469;-68
2021/07/31 03:07:16;;;;;;;4.47;1.70;;;16.60;99.90;;;;;;4992019;28;20033;-67
2021/07/31 03:09:41;;;;;;;6.82;2.10;;;16.60;99.90;;;;;;5006687;28;20034;-67
2021/07/31 03:12:07;;;;;;;5.28;1.77;;;16.60;99.90;;;;;;5006017;28;20592;-67
2021/07/31 03:14:33;;;;;;;9.77;2.33;;;16.50;99.90;;;;;;5006510;28;20038;-67
2021/07/31 03:16:58;;;;;;;6.43;1.92;;;16.60;99.90;;;;;;5006047;28;20545;-67
2021/07/31 03:19:24;;;;;;;5.45;2.10;;;16.40;99.90;;;;;;5003798;28;20444;-67
2021/07/31 03:21:49;;;;;;;5.85;1.90;;;16.30;99.90;;;;;;5010914;28;20037;-67
2021/07/31 03:24:15;;;;;;;7.28;2.10;;;16.30;99.90;;;;;;5006230;28;20030;-67
2021/07/31 03:26:40;;;;;;;5.53;1.95;;;16.20;99.90;;;;;;5005728;28;20484;-67
2021/07/31 03:29:06;;;;;;;6.72;2.03;;;16.20;99.90;;;;;;5004298;28;20343;-68
2021/07/31 03:31:32;;;;;;;7.07;2.22;;;16.20;99.90;;;;;;4988020;28;20076;-67
2021/07/31 03:33:57;;;;;;;5.95;2.22;;;16.30;99.90;;;;;;5004979;28;20026;-67
2021/07/31 03:36:23;;;;;;;6.22;1.90;;;16.40;99.90;;;;;;4987917;28;20411;-67
2021/07/31 03:38:48;;;;;;;7.65;2.00;;;16.40;99.90;;;;;;5003939;28;20063;-67
2021/07/31 03:41:14;;;;;;;6.97;1.90;;;16.40;99.90;;;;;;5006511;28;20447;-67
2021/07/31 03:43:39;;;;;;;4.45;1.75;;;16.50;99.90;;;;;;5006779;28;20058;-67
2021/07/31 03:46:08;;;;;;;7.65;2.10;;;16.60;99.90;;;;;;5005523;28;20040;-67
2021/07/31 03:48:34;;;;;;;5.95;2.20;;;16.50;99.90;;;;;;5004925;28;20034;-68
2021/07/31 03:50:59;;;;;;;6.38;1.83;;;16.50;99.90;;;;;;5005167;28;20090;-67
2021/07/31 03:53:25;;;;;;;5.38;1.85;;;16.50;99.90;;;;;;5006184;28;20036;-67
2021/07/31 03:55:50;;;;;;;5.43;2.05;;;16.50;99.90;;;;;;5003758;28;20030;-67
2021/07/31 03:58:16;;;;;;;5.07;1.40;;;16.50;99.90;;;;;;4990260;28;20061;-67
2021/07/31 04:00:43;;;;;;;4.25;1.55;;;16.50;99.90;;;;;;5005062;28;20034;-67
2021/07/31 04:03:09;;;;;;;4.55;1.70;;;16.50;99.90;;;;;;4988134;28;20482;-67
2021/07/31 04:05:38;;;;;;;5.00;1.80;;;16.40;99.90;;;;;;5005420;28;20109;-67
2021/07/31 04:08:04;;;;;;;10.73;2.53;;;16.40;99.90;;;;;;5006116;28;20037;-67
2021/07/31 04:10:30;;;;;;;6.28;2.33;;;16.40;99.90;;;;;;5009837;28;20748;-67
2021/07/31 04:12:56;;;;;;;3.83;1.60;;;16.40;99.90;;;;;;5006608;28;20021;-67
2021/07/31 04:15:22;;;;;;;5.05;1.83;;;16.50;99.90;;;;;;5005723;28;20034;-67
2021/07/31 04:17:47;;;;;;;6.55;1.60;;;16.40;99.90;;;;;;5005447;28;20437;-67
2021/07/31 04:20:13;;;;;;;4.10;1.55;;;16.40;99.90;;;;;;5005184;28;20037;-67
2021/07/31 04:22:39;;;;;;;4.65;1.60;;;16.50;99.90;;;;;;5001731;28;20156;-68
2021/07/31 04:25:05;;;;;;;8.55;2.15;;;16.40;99.90;;;;;;5005783;28;20038;-67
2021/07/31 04:27:32;;;;;;;4.93;1.80;;;16.50;99.90;;;;;;5002576;28;20045;-68
2021/07/31 04:29:58;;;;;;;4.10;1.30;;;16.40;99.90;;;;;;5005497;28;20029;-67
2021/07/31 04:32:24;;;;;;;8.38;2.17;;;16.50;99.90;;;;;;5002389;28;20103;-67
2021/07/31 04:34:50;;;;;;;7.90;2.10;;;16.50;99.90;;;;;;5005984;28;20061;-67
2021/07/31 04:37:15;;;;;;;6.15;2.00;;;16.50;99.90;;;;;;5004612;28;20159;-68
2021/07/31 04:39:41;;;;;;;6.93;1.85;;;16.20;99.90;;;;;;5004290;28;20048;-67
2021/07/31 04:42:07;;;;;;;6.60;2.08;;;16.40;99.90;;;;;;5001445;28;20573;-67
2021/07/31 04:44:33;;;;;;;8.05;2.17;;;16.30;99.90;;;;;;5006655;28;20116;-67
2021/07/31 04:46:58;;;;;;;6.25;2.10;;;16.20;99.90;;;;;;5005081;28;20679;-67
2021/07/31 04:49:24;;;;;;;8.32;2.30;;;16.20;99.90;;;;;;5006542;28;20029;-68
2021/07/31 04:51:49;;;;;;;5.63;1.75;;;16.10;99.90;;;;;;5004916;28;20033;-67
2021/07/31 04:54:15;;;;;;;5.65;2.00;;;16.10;99.90;;;;;;5006656;28;20029;-67
2021/07/31 04:56:42;;;;;;;4.70;1.65;;;16.10;99.90;;;;;;5006364;28;20691;-68
2021/07/31 04:59:07;;;;;;;6.07;2.15;;;16.20;99.90;;;;;;5003587;28;20406;-70
2021/07/31 05:01:33;;;;;;;9.88;2.30;;;16.20;99.90;;;;;;5005878;28;20022;-70
2021/07/31 05:03:58;;;;;;;6.55;2.28;;;16.20;99.90;;;;;;5004903;28;20061;-70
2021/07/31 05:06:24;;;;;;;6.38;2.15;;;16.30;99.90;;;;;;5003887;28;20034;-70
2021/07/31 05:08:50;;;;;;;7.10;2.10;;;16.30;99.90;;;;;;5005268;28;20070;-70
2021/07/31 05:11:18;;;;;;;7.18;2.28;;;16.40;99.90;;;;;;5006868;28;20033;-70
2021/07/31 05:13:44;;;;;;;9.23;2.05;;;16.40;99.90;;;;;;5005145;28;20363;-70
2021/07/31 05:16:15;;;;;;;4.30;1.77;;;16.50;99.90;;;;;;5008358;28;20056;-68
2021/07/31 05:18:41;;;;;;;10.38;2.33;;;16.50;99.90;;;;;;5006391;28;20022;-68
2021/07/31 05:21:07;;;;;;;6.65;2.20;;;16.40;99.90;;;;;;5008276;28;20385;-67
2021/07/31 05:23:33;;;;;;;9.00;2.35;;;16.40;99.90;;;;;;5009383;28;20501;-70
2021/07/31 05:25:59;;;;;;;6.97;2.13;;;16.30;99.90;;;;;;5004938;28;20140;-70
2021/07/31 05:28:24;;;;;;;7.00;1.83;;;16.40;99.90;;;;;;5018058;28;20048;-70
2021/07/31 05:30:50;;;;;;;7.43;2.15;;;16.50;99.90;;;;;;5010750;28;20045;-69
2021/07/31 05:33:15;;;;;;;6.22;2.00;;;16.50;99.90;;;;;;5009717;28;20026;-69
2021/07/31 05:35:41;;;;;;;7.68;1.77;;;16.50;99.90;;;;;;5008193;28;20473;-70
2021/07/31 05:38:07;;;;;;;4.15;1.77;;;16.50;99.90;;;;;;5007775;28;20030;-69
2021/07/31 05:40:33;;;;;;;9.23;2.85;;;16.50;99.90;;;;;;5009095;28;20393;-69
2021/07/31 05:42:58;;;;;;;7.50;2.72;;;16.40;99.90;;;;;;5012675;28;20037;-69
2021/07/31 05:45:26;;;;;;;7.07;2.28;;;16.40;99.90;;;;;;5009158;28;20076;-69
2021/07/31 05:47:51;;;;;;;7.80;1.75;;;16.50;99.90;;;;;;5008844;28;20034;-69
2021/07/31 05:50:17;;;;;;;6.97;2.30;;;16.60;99.90;;;;;;5006962;28;20025;-70
2021/07/31 05:52:43;;;;;;;10.77;1.90;;;16.60;99.90;;;;;;5007950;28;20065;-69
2021/07/31 05:55:09;;;;;;;4.53;1.70;;;16.70;99.90;;;;;;5008990;28;20105;-69
2021/07/31 05:57:34;;;;;;;8.98;2.30;;;16.70;99.90;;;;;;5007096;28;20038;-70
2021/07/31 06:00:00;;;;;;;7.10;2.30;;;16.80;99.90;;;;;;5008020;28;20788;-69
2021/07/31 06:02:26;;;;;;;4.03;1.50;;;16.70;99.90;;;;;;5008940;28;20109;-70
2021/07/31 06:04:52;;;;;;;6.15;2.00;;;16.70;99.90;;;;;;4989888;28;20030;-70
2021/07/31 06:07:18;;;;;;;10.95;2.53;;;16.80;99.90;;;;;;4986561;28;20445;-69
2021/07/31 06:09:50;;;;;;;8.07;2.10;;;16.80;99.90;;;;;;5008918;28;20105;-70
2021/07/31 06:12:16;;;;;;;7.13;1.92;;;16.90;99.90;;;;;;5006835;28;20025;-69
2021/07/31 06:14:42;;;;;;;6.50;2.30;;;17.00;99.90;;;;;;5008738;28;20049;-69
2021/07/31 06:17:07;;;;;;;6.60;2.15;;;17.00;99.90;;;;;;5007374;28;20077;-70
2021/07/31 06:19:33;;;;;;;6.38;1.88;;;17.20;99.90;;;;;;5006960;28;20564;-70
2021/07/31 06:22:00;;;;;;;6.53;2.40;;;17.20;99.90;;;;;;5007239;28;20029;-68
2021/07/31 06:24:27;;;;;;;7.95;2.33;;;17.30;99.90;;;;;;5008924;28;20109;-68
2021/07/31 06:26:53;;;;;;;6.00;2.08;;;17.40;99.90;;;;;;5007454;28;20026;-67
2021/07/31 06:29:18;;;;;;;7.00;2.30;;;17.50;99.90;;;;;;5007103;28;20038;-67
2021/07/31 06:31:44;;;;;;;5.40;1.90;;;17.40;99.90;;;;;;5008215;28;20030;-67
2021/07/31 06:34:09;;;;;;;6.10;2.15;;;17.20;99.90;;;;;;5010339;28;20030;-67
2021/07/31 06:36:35;;;;;;;6.43;1.80;;;17.20;99.90;;;;;;5007539;28;20057;-68
2021/07/31 06:39:02;;;;;;;5.30;1.98;;;17.20;99.90;;;;;;5007392;28;20038;-68
2021/07/31 06:41:27;;;;;;;5.95;2.15;;;17.30;99.90;;;;;;5004892;28;20116;-68
2021/07/31 06:43:55;;;;;;;7.05;2.03;;;17.40;99.90;;;;;;5007027;28;20101;-68
2021/07/31 06:46:24;;;;;;;8.02;2.40;;;17.40;99.90;;;;;;5005608;28;21582;-68
2021/07/31 06:48:52;;;;;;;6.28;2.00;;;17.50;99.90;;;;;;5007180;28;20539;-68
2021/07/31 06:51:19;;;;;;;6.80;1.85;;;17.60;99.90;;;;;;5005407;28;20036;-69
2021/07/31 06:53:45;;;;;;;7.07;2.20;;;17.70;99.90;;;;;;5004391;28;20056;-68
2021/07/31 06:56:11;;;;;;;9.65;2.65;;;17.70;99.90;;;;;;5007251;28;20172;-68
2021/07/31 06:58:36;;;;;;;9.23;2.13;;;17.40;99.90;;;;;;5008248;28;20061;-68
2021/07/31 07:01:02;;;;;;;6.03;1.92;;;17.30;99.90;;;;;;5003734;28;20038;-68
2021/07/31 07:03:27;;;;;;;6.43;2.25;;;17.20;99.90;;;;;;5005155;28;20034;-68
2021/07/31 07:05:53;;;;;;;5.72;1.88;;;17.50;99.90;;;;;;5005537;28;20022;-69
2021/07/31 07:08:19;;;;;;;5.10;1.85;;;17.60;99.90;;;;;;5004952;28;20591;-69
2021/07/31 07:10:44;;;;;;;6.05;2.30;;;17.60;99.90;;;;;;5004644;28;20164;-68
2021/07/31 07:13:10;;;;;;;4.28;1.75;;;17.70;99.90;;;;;;5003757;28;20469;-68
2021/07/31 07:15:36;;;;;;;8.90;2.30;;;17.70;99.90;;;;;;5004958;28;20040;-68
2021/07/31 07:18:02;;;;;;;7.82;2.20;;;17.80;99.90;;;;;;5005260;28;20076;-67
2021/07/31 07:20:27;;;;;;;6.30;2.20;;;17.70;99.90;;;;;;5007632;28;20498;-69
2021/07/31 07:22:53;;;;;;;5.78;2.20;;;17.70;99.90;;;;;;5007778;28;20034;-68
2021/07/31 07:25:19;;;;;;;6.80;1.80;;;17.80;99.90;;;;;;5004335;28;20018;-68
2021/07/31 07:27:45;;;;;;;7.05;2.25;;;18.20;99.90;;;;;;5006420;28;20093;-68
2021/07/31 07:30:11;;;;;;;5.38;2.22;;;18.30;99.90;;;;;;5003556;28;20497;-68
2021/07/31 07:32:38;;;;;;;4.57;1.67;;;18.10;99.90;;;;;;5005507;28;20465;-68
2021/07/31 07:35:05;;;;;;;5.43;1.83;;;18.00;99.90;;;;;;5004698;28;20564;-70
2021/07/31 07:37:31;;;;;;;5.68;2.00;;;18.00;99.90;;;;;;5006708;28;20022;-68
2021/07/31 07:39:58;;;;;;;5.88;1.90;;;18.50;99.90;;;;;;5004133;28;20033;-68
2021/07/31 07:42:24;;;;;;;7.55;2.60;;;18.50;99.90;;;;;;5004929;28;20280;-68
2021/07/31 07:44:50;;;;;;;6.97;1.98;;;18.50;99.90;;;;;;5005546;28;20487;-68
2021/07/31 07:47:16;;;;;;;5.55;2.13;;;18.50;99.90;;;;;;4989963;28;20025;-68
2021/07/31 07:49:41;;;;;;;7.40;2.85;;;18.80;99.90;;;;;;5001992;28;20044;-68
2021/07/31 07:52:07;;;;;;;5.50;1.70;;;18.90;99.90;;;;;;5003791;28;20530;-66
2021/07/31 07:54:33;;;;;;;9.07;2.10;;;18.90;99.90;;;;;;5007792;28;20030;-68
2021/07/31 07:56:58;;;;;;;5.13;1.90;;;18.50;99.90;;;;;;5008970;28;20026;-69
2021/07/31 07:59:24;;;;;;;4.20;1.50;;;18.50;99.90;;;;;;5006172;28;20662;-68
2021/07/31 08:01:50;;;;;;;7.50;2.00;;;18.60;99.90;;;;;;5004712;28;20454;-68
2021/07/31 08:04:16;;;;;;;5.57;1.70;;;18.80;99.90;;;;;;4988316;28;20040;-68
2021/07/31 08:06:42;;;;;;;4.18;1.48;;;19.00;99.90;;;;;;5006247;28;20069;-68
2021/07/31 08:09:08;;;;;;;5.45;1.52;;;19.00;99.90;;;;;;5002690;28;20112;-68
2021/07/31 08:11:34;;;;;;;4.88;1.50;;;19.20;99.90;;;;;;5005776;28;20037;-67
2021/07/31 08:14:01;;;;;;;7.15;2.38;;;19.40;99.90;;;;;;5002614;28;20030;-68
2021/07/31 08:16:27;;;;;;;5.30;1.90;;;19.20;99.90;;;;;;5004140;28;20123;-68
2021/07/31 08:18:53;;;;;;;4.80;1.80;;;18.70;99.90;;;;;;5004007;28;20050;-68
2021/07/31 08:21:19;;;;;;;5.53;1.58;;;18.60;99.90;;;;;;5003463;28;20030;-67
2021/07/31 08:23:46;;;;;;;6.68;2.05;;;18.80;99.90;;;;;;5003435;28;20382;-67
2021/07/31 08:26:12;;;;;;;4.95;1.90;;;18.50;99.90;;;;;;5004091;28;20116;-67
2021/07/31 08:28:44;;;;;;;5.88;2.00;;;18.30;99.90;;;;;;5007010;28;20069;-66
2021/07/31 08:31:11;;;;;;;4.53;1.77;;;18.40;99.90;;;;;;5007383;28;20174;-67
2021/07/31 08:33:37;;;;;;;5.38;1.67;;;18.40;99.90;;;;;;5007725;28;20084;-68
2021/07/31 08:36:05;;;;;;;7.45;2.30;;;18.70;99.90;;;;;;5005087;28;20026;-68
2021/07/31 08:38:30;;;;;;;5.78;1.92;;;19.30;99.90;;;;;;5004102;28;20057;-68
2021/07/31 08:40:56;;;;;;;3.63;1.40;;;20.00;99.90;;;;;;5003810;28;20042;-70
2021/07/31 08:43:22;;;;;;;8.13;1.77;;;19.60;99.90;;;;;;5003477;28;20033;-67
2021/07/31 08:45:48;;;;;;;6.85;2.20;;;19.60;99.90;;;;;;5003939;28;20036;-68
2021/07/31 08:48:15;;;;;;;4.68;1.85;;;18.90;99.90;;;;;;5004002;28;20022;-69
2021/07/31 08:50:41;;;;;;;6.97;2.10;;;18.90;99.90;;;;;;5003872;28;20030;-68
2021/07/31 08:53:07;;;;;;;6.40;1.75;;;18.70;99.90;;;;;;5002637;28;20021;-68
2021/07/31 08:55:33;;;;;;;5.75;1.90;;;18.90;99.90;;;;;;5004706;28;20038;-67
2021/07/31 08:58:01;;;;;;;4.82;1.73;;;19.30;99.90;;;;;;5000962;28;20038;-68
2021/07/31 09:00:27;;;;;;;6.93;1.95;;;19.50;99.90;;;;;;4987474;28;20038;-69
2021/07/31 09:02:53;;;;;;;6.32;1.83;;;19.50;99.90;;;;;;5002092;28;20424;-69
2021/07/31 09:05:30;;;;;;;4.50;1.50;;;19.50;99.90;;;;;;5004888;28;20029;-67
2021/07/31 09:07:59;;;;;;;8.35;1.92;;;18.90;99.90;;;;;;4982620;28;20038;-69
2021/07/31 09:10:27;;;;;;;5.30;1.90;;;19.10;99.90;;;;;;5004599;28;20104;-70
2021/07/31 09:12:59;;;;;;;8.30;2.22;;;18.90;99.90;;;;;;5004515;28;20088;-70
2021/07/31 09:15:47;;;;;;;4.28;1.52;;;19.00;99.90;;;;;;5003516;28;20080;-70
2021/07/31 09:18:29;;;;;;;5.15;1.75;;;19.10;99.90;;;;;;4987627;28;20362;-70
2021/07/31 09:20:54;;;;;;;4.95;1.90;;;19.30;99.90;;;;;;5003108;28;20037;-70
2021/07/31 09:23:20;;;;;;;4.05;1.35;;;20.00;99.90;;;;;;5006532;28;20044;-70
2021/07/31 09:25:59;;;;;;;6.28;1.52;;;21.10;99.90;;;;;;5005149;28;20462;-70
2021/07/31 09:28:24;;;;;;;5.65;1.88;;;20.80;99.90;;;;;;5004055;28;20082;-71
2021/07/31 09:30:51;;;;;;;5.03;1.55;;;20.30;99.90;;;;;;5004579;28;20469;-70
2021/07/31 09:33:20;;;;;;;6.28;1.75;;;20.80;99.90;;;;;;4986232;28;20081;-70
2021/07/31 09:35:47;;;;;;;5.85;1.67;;;20.50;99.90;;;;;;5003923;28;20088;-70
2021/07/31 09:38:13;;;;;;;5.28;1.60;;;20.60;99.90;;;;;;5003796;28;20080;-69
2021/07/31 09:40:39;;;;;;;7.05;1.90;;;20.70;99.90;;;;;;4991342;28;20041;-69
2021/07/31 09:43:18;;;;;;;5.93;1.80;;;20.50;99.90;;;;;;4985863;28;20022;-69
2021/07/31 09:45:44;;;;;;;5.78;1.90;;;19.80;99.90;;;;;;5005604;28;20022;-69
2021/07/31 09:48:10;;;;;;;6.90;2.05;;;20.00;99.90;;;;;;5003425;28;20038;-69
2021/07/31 09:50:41;;;;;;;4.53;1.70;;;20.00;99.90;;;;;;5003814;28;20540;-69
2021/07/31 09:53:19;;;;;;;8.27;2.30;;;19.80;99.90;;;;;;5005826;28;20308;-70
2021/07/31 09:55:46;;;;;;;15.40;1.95;;;19.50;99.90;;;;;;4986358;28;20401;-71
2021/07/31 09:58:14;;;;;;;5.80;1.80;;;19.50;99.90;;;;;;4990031;28;20076;-69
2021/07/31 10:00:41;;;;;;;10.90;2.22;;;19.10;99.90;;;;;;5004952;28;20116;-70
2021/07/31 10:03:10;;;;;;;6.97;2.30;;;19.10;99.90;;;;;;5007782;28;20045;-70
2021/07/31 10:05:41;;;;;;;5.00;1.80;;;19.20;99.90;;;;;;5006456;28;20029;-70
2021/07/31 10:08:07;;;;;;;7.97;2.08;;;18.10;99.90;;;;;;5003713;28;20026;-72
2021/07/31 10:10:34;;;;;;;5.13;1.73;;;19.30;99.90;;;;;;5006864;28;20080;-71
2021/07/31 10:13:00;;;;;;;6.20;1.73;;;19.30;99.90;;;;;;5007362;28;20026;-69
2021/07/31 10:15:26;;;;;;;5.38;2.03;;;19.00;99.90;;;;;;5006249;28;20097;-70
2021/07/31 10:17:53;;;;;;;8.90;1.80;;;19.30;99.90;;;;;;5007778;28;20151;-70
2021/07/31 10:20:26;;;;;;;6.57;1.83;;;19.40;99.90;;;;;;5012002;28;20393;-69
2021/07/31 10:22:52;;;;;;;6.07;1.75;;;19.60;99.90;;;;;;5003465;28;20031;-70
2021/07/31 10:25:20;;;;;;;6.72;2.10;;;19.60;99.90;;;;;;5007613;28;20041;-70
2021/07/31 10:27:46;;;;;;;7.70;1.98;;;19.90;99.90;;;;;;5007397;28;20030;-70
2021/07/31 10:30:34;;;;;;;7.72;1.80;;;20.20;99.90;;;;;;5006798;28;20045;-70
2021/07/31 10:33:00;;;;;;;6.22;2.05;;;20.10;99.90;;;;;;5000930;28;20044;-70
2021/07/31 10:35:30;;;;;;;9.23;1.80;;;19.70;99.90;;;;;;4989017;28;20037;-70
2021/07/31 10:38:01;;;;;;;5.90;1.85;;;19.70;99.90;;;;;;5006161;28;20498;-70
2021/07/31 10:40:26;;;;;;;6.50;1.95;;;19.30;99.90;;;;;;5007149;28;20069;-71
2021/07/31 10:42:52;;;;;;;5.07;1.92;;;19.40;99.90;;;;;;5004776;28;20057;-71
2021/07/31 10:45:31;;;;;;;5.20;1.80;;;19.70;99.90;;;;;;5006943;28;20021;-71
2021/07/31 10:48:04;;;;;;;6.40;1.90;;;20.00;99.90;;;;;;5009592;28;20020;-70
2021/07/31 10:50:30;;;;;;;4.75;1.80;;;19.70;99.90;;;;;;5006165;28;20380;-70
2021/07/31 10:53:01;;;;;;;5.20;2.17;;;19.50;99.90;;;;;;5005728;28;20022;-70
2021/07/31 10:55:36;;;;;;;5.55;1.60;;;19.50;99.90;;;;;;5003489;28;20038;-69
2021/07/31 10:58:06;;;;;;;5.60;1.75;;;19.80;99.90;;;;;;5002190;28;20030;-70
2021/07/31 11:00:37;;;;;;;6.65;1.58;;;21.20;99.90;;;;;;5005784;28;20108;-70
2021/07/31 11:03:31;;;;;;;5.85;1.95;;;21.30;99.90;;;;;;5000550;28;20026;-70
2021/07/31 11:06:06;;;;;;;6.45;2.08;;;20.70;99.90;;;;;;4998118;28;20029;-71
2021/07/31 11:08:53;;;;;;;6.47;2.00;;;20.40;99.90;;;;;;5003206;28;20069;-70
2021/07/31 11:11:19;;;;;;;7.25;1.88;;;21.20;99.90;;;;;;5005761;28;20101;-70
2021/07/31 11:13:44;;;;;;;4.55;1.50;;;21.90;99.90;;;;;;5006983;28;20120;-70
2021/07/31 11:16:13;;;;;;;5.70;1.80;;;21.30;99.90;;;;;;5005424;28;20530;-71
2021/07/31 11:18:39;;;;;;;6.15;1.50;;;21.00;99.90;;;;;;5005851;28;20028;-70
2021/07/31 11:21:11;;;;;;;6.32;1.98;;;20.70;99.90;;;;;;5003629;28;20113;-70
2021/07/31 11:24:09;;;;;;;5.90;1.92;;;20.60;99.90;;;;;;5000628;28;20025;-70
2021/07/31 11:26:51;;;;;;;5.18;1.83;;;20.40;99.90;;;;;;5000679;28;20041;-70
2021/07/31 11:29:17;;;;;;;5.32;2.00;;;20.30;99.90;;;;;;4997030;28;20378;-71
2021/07/31 11:32:03;;;;;;;5.85;1.70;;;21.30;99.90;;;;;;5003607;28;20033;-71
2021/07/31 11:34:40;;;;;;;8.27;1.80;;;22.90;99.90;;;;;;5001078;28;20024;-70
2021/07/31 11:37:07;;;;;;;5.68;1.83;;;24.40;99.50;;;;;;4998418;28;20034;-70
2021/07/31 11:39:33;;;;;;;7.47;1.75;;;23.80;98.30;;;;;;4986874;28;20053;-70
2021/07/31 11:41:59;;;;;;;7.13;1.90;;;22.50;99.90;;;;;;5001480;28;20038;-70
2021/07/31 11:44:32;;;;;;;4.93;1.80;;;22.40;99.90;;;;;;4985212;28;20030;-71
2021/07/31 11:46:59;;;;;;;4.18;1.45;;;22.20;99.90;;;;;;5001499;28;20033;-71
2021/07/31 11:49:28;;;;;;;6.57;1.70;;;21.40;99.90;;;;;;4989344;28;20033;-70
2021/07/31 11:52:04;;;;;;;5.10;1.75;;;21.40;99.90;;;;;;5002831;28;20040;-70
2021/07/31 11:54:31;;;;;;;7.10;2.20;;;21.60;99.90;;;;;;5000475;28;20053;-70
2021/07/31 11:56:59;;;;;;;5.07;1.77;;;21.50;99.90;;;;;;4997398;28;20392;-70
2021/07/31 11:59:39;;;;;;;4.25;1.45;;;21.60;99.90;;;;;;4999241;28;20030;-71
2021/07/31 12:02:05;;;;;;;;;;;21.60;99.90;;;;;;4999197;28;20030;-70
2021/07/31 12:04:53;;;;;;;4.45;1.67;;;21.60;99.90;;;;;;5000280;28;19920;-70
2021/07/31 12:07:26;;;;;;;4.53;1.50;;;21.70;99.90;;;;;;5002184;28;20030;-71
2021/07/31 12:10:08;;;;;;;4.63;1.38;;;21.60;99.90;;;;;;4990043;28;20038;-70
2021/07/31 12:12:36;;;;;;;3.58;1.40;;;21.70;99.90;;;;;;5003237;28;20022;-70
2021/07/31 12:15:14;;;;;;;5.22;1.60;;;22.30;99.70;;;;;;5000667;28;20037;-70
2021/07/31 12:17:45;;;;;;;6.38;1.88;;;23.80;98.30;;;;;;5001799;28;20584;-69
2021/07/31 12:20:11;;;;;;;4.45;1.60;;;23.30;97.30;;;;;;5004098;28;20057;-70
2021/07/31 12:22:50;;;;;;;6.93;1.60;;;23.40;97.80;;;;;;5003290;28;20497;-70
2021/07/31 12:25:17;;;;;;;6.30;1.40;;;23.10;97.20;;;;;;5000350;28;20065;-71
2021/07/31 12:27:58;;;;;;;4.80;1.60;;;22.20;98.50;;;;;;4998788;28;20036;-71
2021/07/31 12:30:36;;;;;;;5.88;1.58;;;22.20;99.30;;;;;;5004632;28;20030;-71
2021/07/31 12:33:05;;;;;;;10.10;1.70;;;22.10;98.70;;;;;;5000597;28;20393;-70
2021/07/31 12:35:35;;;;;;;5.45;1.60;;;22.20;99.40;;;;;;4996409;28;20588;-69
2021/07/31 12:38:02;;;;;;;5.55;1.40;;;22.80;98.90;;;;;;4999475;28;20121;-70
2021/07/31 12:40:28;;;;;;;4.10;1.38;;;23.00;97.60;;;;;;5000941;28;20611;-71
2021/07/31 12:42:53;;;;;;;6.22;1.70;;;22.90;97.50;;;;;;4976094;28;20034;-70
2021/07/31 12:45:19;;;;;;;4.65;1.40;;;22.60;98.50;;;;;;4996902;28;20038;-70
2021/07/31 12:47:45;;;;;;;4.22;1.42;;;22.40;98.50;;;;;;5001675;28;20022;-71